Racecast

Willow Lott

Colorado College (CO) · So · CO D5A4A · Compare head to head

Athlete rating 120.2 2024 XC season
Best race 143.8 XC
Races 59
Seasons 7 2018 — 2024

RankedNation #1708·SCAC #4·CO #71·Team #4 ?

Rating scale ?

Cross Country

2024 XC 116.7

Colorado College (CO) · Grade So

Date Meet Event Result Place Rating Difficulty PR/SR Flags
2024-11-02 South Bossier Park 6000m 23:45.2 17th · 10th on team 112.8 -0.042 ★CR CSR
2024-10-19 Saukie Golf Course 6000m 22:44.3 62nd · 7th on team 113.8 -0.083 SR CSR
2024-10-05 Monument Valley Park 6000m 22:52.2 10th · 7th on team 116.9 -0.053 ★CR SR CSR
2024-09-07 Monument Valley Park 5000m 19:02.5 23rd · 7th on team 123.4 +0.007 ★CR SR CSR RSR

2023 XC 119.5

Colorado College (CO) · Grade Fr

Date Meet Event Result Place Rating Difficulty PR/SR Flags
2023-11-18 Big Spring HS 6000m -0.078 ★CR CSR
2023-10-28 Seguin Outdoor Learning Center 6000m 23:50.6 4th · 4th on team 117.0 -0.015 ★CR CSR
2023-10-14 Saukie Golf Course 6000m 22:30.1 22nd · 2nd on team 116.0 -0.083 ★CR CSR
2023-09-30 Colorado College 6000m 22:17.4 1st · 1st on team 124.0 -0.022 ★PR ★CR SR CSR RSR
2023-09-16 Washington Park 6000m 22:44.4 4th · 1st on team 121.0 -0.033 PR ★CR SR CSR RSR
2023-09-02 Monument Valley Park 5000m 19:43.1 25th · 2nd on team 119.7 +0.007 CR SR CSR RSR

2022 XC 134.8

Unattached (TX) · Grade 12

Date Meet Event Result Place Rating Difficulty PR/SR Flags
2022-12-03 John Hunt Cross Country Park 5000m 18:41.9 39th · 30th on team 136.3 -0.030 ★CR CSR
2022-11-19 Coyote Run Golf Course at Leisure World 5000m 18:40.1 3rd · 1st on team 143.8 +0.027 ★CR ★R SR CSR RSR
2022-10-29 Norris Penrose Event Center 5000m 19:32.8 19th · 1st on team 139.2 +0.041 ★CR CSR RSR
2022-10-20 Elmwood Golf Course 5000m 19:31.5 1st · 1st on team 137.3 +0.020 ★CR CSR
2022-10-07 Hillcrest Golf Club 5000m 19:40.2 2nd · 1st on team 134.1 +0.007 ★CR CSR
2022-09-29 Royal Gorge Bridge & Park 5000m 19:20.6 1st · 1st on team 138.0 +0.019 ★CR SR CSR RSR
2022-09-17 Valley Regional Park 5000m 19:48.5 27th · 1st on team 129.0 -0.027 ★CR SR CSR
2022-09-02 Norris Penrose Event Center 5000m 21:05.6 29th · 2nd on team 129.6 +0.041 SR CSR RSR
2022-08-20 Matchett Park 4828m 19:42.1 8th · 5th on team 125.5 -0.005 ★PR ★CR SR CSR RSR

2021 XC 137.0

Durango (CO) · Grade 11

Date Meet Event Result Place Rating Difficulty PR/SR Flags
2021-11-20 Shalimar Country Club 5000m 19:28.1 101st · 2nd on team 135.7 +0.004 ★CR CSR
2021-10-21 Elmwood Golf Course 5000m 19:50 2nd · 1st on team 136.3 +0.020 CR CSR
2021-10-01 Hillcrest Golf Club 5000m 20:16 2nd · 2nd on team 130.8 +0.007 CR CSR
2021-09-24 Links Golf Course 5000m 18:32.9 42nd · 1st on team 142.8 +0.010 ★PR ★CR R SR CSR RSR
2021-09-11 Cattails Golf Course 5000m 19:10.3 3rd · 1st on team 135.4 -0.021 ★CR SR CSR
2021-08-28 Miloit Park 5000m 20:46 2nd · 1st on team 141.1 +0.110 ★CR R SR CSR RSR

2020 XC 133.3

Durango (CO) · Grade 10

Date Meet Event Result Place Rating Difficulty PR/SR Flags
2020-10-09 Elmwood Golf Course 5000m 20:37.4 4th · 2nd on team 132.1 +0.020 CR CSR
2020-09-25 Lincoln Park Golf Course 5000m 18:59 4th · 1st on team 134.6 -0.037 ★CR SR CSR RSR

2019 XC 134.8

Durango (CO) · Grade 9

Date Meet Event Result Place Rating Difficulty PR/SR Flags
2019-11-23 Grande Sports Complex 5000m 19:19.1 123rd · 2nd on team 134.5 +0.003
2019-10-26 Norris Penrose Event Center 5000m 19:45.5 30th · 2nd on team 138.5 +0.041 CR CSR
2019-09-27 Grande Sports Complex 5000m 18:35.2 35th · 2nd on team 138.9 +0.003 PR ★CR R SR CSR RSR
2019-09-20 Snooks Bottom Open Space 5000m 19:35.7 5th · 2nd on team 134.1 +0.010 PR ★CR SR CSR RSR
2019-09-07 Cattails Golf Course 5000m 19:55.1 9th · 2nd on team 127.9 -0.021 PR CR SR CSR RSR

2018 XC 133.5

Escalante (CO) · Grade 8

Date Meet Event Result Place Rating Difficulty PR/SR Flags
2018-09-22 Pagosa Springs High 2500m 11:11 1st · 1st on team 128.2 +0.025 ★PR ★CR SR CSR
2018-09-19 Fred Cook 2172m 8:36.7 1st · 1st on team 138.9 ★PR ★CR R SR CSR RSR

Track & Field

2024 TF 107.1

Colorado College (CO) · Grade Fr

Date Meet Event Result Place Rating Difficulty PR/SR Flags
2024-04-28 SCAC Outdoor Championships 5000m 18:55.1 7th · 5th on team 105.0 -0.035
2024-04-13 Wichita State KT Woodman Invitational 5000m 18:53.11 17th · 4th on team 107.5 -0.032
2024-03-15 Meet results → Women's 800 Meters 2:29.69 11th · 2nd on team ★PR SR
2024-03-15 Meet results → Women's 1500 Meters 5:09.14 24th · 5th on team ★PR SR
2024-03-09 Occidental Distance Carnival & Spring Break Classic 5000m 18:24.75 33rd · 7th on team 108.6 -0.044 ★PR SR RSR

2023 TF 126.6

Unattached (TX) · Grade 12

Date Meet Event Result Place Rating Difficulty PR/SR Flags
2023-02-18 Let's Get REAL Invitational Championship 3200m 12:02.67 3rd · 2nd on team 126.6 -0.003 SR RSR
2023-02-18 Let's Get REAL Invitational Championship 1mile 5:39.08 14th · 10th on team 126.5 -0.003 ★PR SR

2022 TF 129.1

Durango (CO) · Grade 11

Date Meet Event Result Place Rating Difficulty PR/SR Flags
2022-05-21 CHSSA State Championships 3200m 11:13.18 9th · 1st on team 133.3 -0.010 ★PR SR
2022-05-14 Dennis Teeters Tiger Invitational 1600m 5:12.4 3rd · 1st on team 133.6 -0.016 ★PR SR RSR
2022-05-14 Dennis Teeters Tiger Invitational 3200m 11:14.2 1st · 1st on team 133.6 -0.016 PR SR
2022-05-07 Southwestern League Championships 3200m 11:47.32 2nd · 1st on team 131.5 +0.008
2022-04-30 Liberty Bell Track and Field Invitational 1600m 5:34.85 23rd · 3rd on team 125.3 -0.013
2022-04-30 Liberty Bell Track and Field Invitational 3200m 11:29.67 6th · 1st on team 131.5 -0.013 PR SR
2022-04-14 High Altitude Challenge 800m 2:38.91 9th · 4th on team 122.0 +0.016 SR
2022-04-14 High Altitude Challenge 1600m 5:27.33 1st · 1st on team 131.7 +0.016 SR RSR
2022-03-12 PIEDRA VISTA TURNER RELAYS 3200m 12:07.63 1st · 1st on team 124.8 -0.006 SR RSR
2022-03-12 PIEDRA VISTA TURNER RELAYS 1600m 5:39.98 2nd · 2nd on team 123.9 -0.006 SR

2021 TF 126.4

Durango (CO) · Grade 10

Date Meet Event Result Place Rating Difficulty PR/SR Flags
2021-06-18 Grand Junction Tiger Invitational 3200m 11:44.64 3rd · 1st on team 128.8 -0.016 PR SR
2021-06-18 Grand Junction Tiger Invitational 1600m 5:24.06 7th · 1st on team 129.4 -0.016 PR SR
2021-06-05 Ron Keller Invitational 3200m 12:35.08 2nd · 2nd on team 123.2 +0.008
2021-06-05 Ron Keller Invitational 800m 2:28.41 2nd · 2nd on team 130.1 +0.008 ★PR SR RSR
2021-05-29 Mancos Bluejays Invitational 1600m 5:42.86 1st · 1st on team 125.6 +0.010
2021-05-22 Pine River Invitational 1600m 5:56.61 2nd · 2nd on team 121.7 +0.018
2021-05-14 High Altitude Challenge 3200m 12:28.89 2nd · 1st on team 125.0 +0.016 PR SR RSR
2021-05-14 High Altitude Challenge 1600m 5:39.04 2nd · 1st on team 127.6 +0.016 PR SR RSR